createdAt,value
2023-04-23T00:01:45.408Z,100140.56
2023-04-23T00:04:12.436Z,100138.19
2023-04-23T00:06:40.007Z,100143.78
2023-04-23T00:09:08.005Z,100143.78
2023-04-23T00:11:34.691Z,100141.78
2023-04-23T00:14:01.381Z,100144.56
2023-04-23T00:16:28.441Z,100138.53
2023-04-23T00:18:54.825Z,100136.13
2023-04-23T00:21:21.354Z,100136.06
2023-04-23T00:23:47.748Z,100140.88
2023-04-23T00:26:14.156Z,100134.88
2023-04-23T00:28:40.648Z,100131.63
2023-04-23T00:31:07.874Z,100146.88
2023-04-23T00:33:34.378Z,100148.09
2023-04-23T00:36:00.946Z,100148.47
2023-04-23T00:38:27.545Z,100146.47
2023-04-23T00:40:54.043Z,100136.03
2023-04-23T00:43:20.650Z,100133.22
2023-04-23T00:45:47.961Z,100131.63
2023-04-23T00:48:14.934Z,100132.00
2023-04-23T00:50:42.127Z,100132.00
2023-04-23T00:53:09.019Z,100123.97
2023-04-23T00:55:35.517Z,100126.00
2023-04-23T00:58:02.217Z,100126.78
2023-04-23T01:00:29.675Z,100127.19
2023-04-23T01:02:58.300Z,100134.41
2023-04-23T01:05:25.646Z,100132.81
2023-04-23T01:07:52.213Z,100138.44
2023-04-23T01:10:19.022Z,100144.03
2023-04-23T01:12:45.990Z,100143.63
2023-04-23T01:15:12.456Z,100136.00
2023-04-23T01:17:39.087Z,100131.19
2023-04-23T01:20:06.613Z,100130.00
2023-04-23T01:22:36.515Z,100134.44
2023-04-23T01:25:04.252Z,100138.84
2023-04-23T01:27:31.114Z,100142.84
2023-04-23T01:29:58.312Z,100133.63
2023-04-23T01:32:25.074Z,100140.03
2023-04-23T01:34:53.951Z,100136.81
2023-04-23T01:37:21.256Z,100129.59
2023-04-23T01:39:47.730Z,100141.59
2023-04-23T01:42:14.697Z,100136.41
2023-04-23T01:44:41.750Z,100134.78
2023-04-23T01:47:08.496Z,100134.38
2023-04-23T01:49:34.990Z,100139.59
2023-04-23T01:52:01.669Z,100139.59
2023-04-23T01:54:28.092Z,100133.59
2023-04-23T01:56:56.030Z,100136.38
2023-04-23T01:59:22.789Z,100143.19
2023-04-23T02:01:50.150Z,100156.03
2023-04-23T02:04:17.828Z,100144.81
2023-04-23T02:06:47.681Z,100138.41
2023-04-23T02:09:14.604Z,100146.81
2023-04-23T02:11:41.205Z,100145.59
2023-04-23T02:14:08.972Z,100148.00
2023-04-23T02:16:36.506Z,100154.84
2023-04-23T02:19:03.409Z,100155.63
2023-04-23T02:21:30.119Z,100148.81
2023-04-23T02:23:57.372Z,100148.00
2023-04-23T02:26:25.132Z,100138.00
2023-04-23T02:28:51.725Z,100138.00
2023-04-23T02:31:18.762Z,100136.75
2023-04-23T02:33:46.879Z,100147.19
2023-04-23T02:36:13.283Z,100141.19
2023-04-23T02:38:42.390Z,100139.94
2023-04-23T02:41:08.961Z,100145.97
2023-04-23T02:43:35.591Z,100142.75
2023-04-23T02:46:08.614Z,100147.94
2023-04-23T02:48:40.798Z,100145.91
2023-04-23T02:51:09.826Z,100137.09
2023-04-23T02:53:36.465Z,100140.72
2023-04-23T02:56:03.022Z,100139.50
2023-04-23T02:58:29.346Z,100137.09
2023-04-23T03:00:55.927Z,100139.50
2023-04-23T03:03:22.556Z,100132.66
2023-04-23T03:05:49.046Z,100135.47
2023-04-23T03:08:15.774Z,100135.03
2023-04-23T03:10:42.231Z,100138.63
2023-04-23T03:13:08.741Z,100136.59
2023-04-23T03:15:35.421Z,100134.22
2023-04-23T03:18:02.078Z,100137.78
2023-04-23T03:20:28.506Z,100138.56
2023-04-23T03:22:55.087Z,100130.16
2023-04-23T03:25:23.728Z,100126.91
2023-04-23T03:27:50.133Z,100124.91
2023-04-23T03:30:16.839Z,100130.09
2023-04-23T03:32:43.273Z,100129.25
2023-04-23T03:35:10.017Z,100123.25
2023-04-23T03:37:36.798Z,100122.03
2023-04-23T03:40:07.447Z,100119.97
2023-04-23T03:42:34.305Z,100120.34
2023-04-23T03:45:01.550Z,100121.16
2023-04-23T03:47:28.019Z,100118.34
2023-04-23T03:49:54.862Z,100117.91
2023-04-23T03:52:21.486Z,100113.13
2023-04-23T03:54:47.860Z,100112.31
2023-04-23T03:57:14.458Z,100102.66
2023-04-23T03:59:40.810Z,100110.28
2023-04-23T04:02:07.455Z,100104.63
2023-04-23T04:04:34.566Z,100101.44
2023-04-23T04:07:01.360Z,100101.00
2023-04-23T04:09:28.728Z,100107.41
2023-04-23T04:11:55.737Z,100110.59
2023-04-23T04:14:23.324Z,100114.19
2023-04-23T04:16:49.789Z,100104.16
2023-04-23T04:19:16.302Z,100105.75
2023-04-23T04:21:42.701Z,100108.53
2023-04-23T04:24:11.549Z,100110.53
2023-04-23T04:26:38.020Z,100105.34
2023-04-23T04:29:04.616Z,100102.53
2023-04-23T04:31:31.365Z,100098.94
2023-04-23T04:33:58.343Z,100105.34
2023-04-23T04:36:29.080Z,100103.34
2023-04-23T04:38:58.670Z,100105.34
2023-04-23T04:41:25.942Z,100094.13
2023-04-23T04:43:52.718Z,100096.94
2023-04-23T04:46:20.636Z,100096.94
2023-04-23T04:48:48.104Z,100097.72
2023-04-23T04:51:14.567Z,100096.53
2023-04-23T04:53:41.215Z,100091.72
2023-04-23T04:56:08.111Z,100095.31
2023-04-23T04:58:34.777Z,100090.53
2023-04-23T05:01:01.502Z,100094.56
2023-04-23T05:03:28.267Z,100094.16
2023-04-23T05:05:58.995Z,100086.56
2023-04-23T05:08:25.555Z,100089.34
2023-04-23T05:10:54.168Z,100082.19
2023-04-23T05:13:20.537Z,100075.78
2023-04-23T05:15:47.004Z,100079.84
2023-04-23T05:18:13.601Z,100080.66
2023-04-23T05:20:41.310Z,100077.84
2023-04-23T05:23:07.692Z,100092.66
2023-04-23T05:25:35.813Z,100083.44
2023-04-23T05:28:02.363Z,100088.66
2023-04-23T05:30:29.033Z,100086.66
2023-04-23T05:32:55.696Z,100085.06
2023-04-23T05:35:22.154Z,100085.06
2023-04-23T05:37:48.878Z,100081.44
2023-04-23T05:40:15.428Z,100085.44
2023-04-23T05:42:41.892Z,100084.25
2023-04-23T05:45:09.432Z,100090.66
2023-04-23T05:47:36.578Z,100089.47
2023-04-23T05:50:03.048Z,100091.06
2023-04-23T05:52:33.295Z,100087.88
2023-04-23T05:54:59.612Z,100099.50
2023-04-23T05:57:26.460Z,100105.53
2023-04-23T05:59:52.867Z,100099.53
2023-04-23T06:02:20.891Z,100093.53
2023-04-23T06:04:49.148Z,100093.13
2023-04-23T06:07:16.335Z,100089.16
2023-04-23T06:09:42.742Z,100095.22
2023-04-23T06:12:11.644Z,100088.78
2023-04-23T06:14:38.092Z,100083.66
2023-04-23T06:17:04.724Z,100085.28
2023-04-23T06:19:31.427Z,100084.91
2023-04-23T06:21:58.018Z,100087.31
2023-04-23T06:24:24.397Z,100088.94
2023-04-23T06:26:50.978Z,100079.34
2023-04-23T06:29:17.607Z,100080.56
2023-04-23T06:31:44.053Z,100074.56
2023-04-23T06:34:10.612Z,100072.97
2023-04-23T06:36:36.936Z,100064.97
2023-04-23T06:39:03.557Z,100066.22
2023-04-23T06:41:30.052Z,100061.41
2023-04-23T06:43:58.625Z,100055.03
2023-04-23T06:46:26.254Z,100056.63
2023-04-23T06:48:52.636Z,100046.66
2023-04-23T06:51:19.095Z,100052.25
2023-04-23T06:53:47.151Z,100044.66
2023-04-23T06:56:13.567Z,100059.91
2023-04-23T06:58:41.292Z,100055.09
2023-04-23T07:01:08.014Z,100055.09
2023-04-23T07:03:34.554Z,100059.91
2023-04-23T07:06:01.342Z,100061.47
2023-04-23T07:08:27.694Z,100059.47
2023-04-23T07:10:54.340Z,100048.22
2023-04-23T07:13:20.726Z,100049.78
2023-04-23T07:15:47.199Z,100048.13
2023-04-23T07:18:13.695Z,100040.88
2023-04-23T07:20:40.245Z,100046.06
2023-04-23T07:23:09.176Z,100037.56
2023-04-23T07:25:35.758Z,100047.94
2023-04-23T07:28:02.396Z,100045.88
2023-04-23T07:30:31.066Z,100036.19
2023-04-23T07:32:57.736Z,100047.41
2023-04-23T07:35:26.880Z,100046.13
2023-04-23T07:37:56.016Z,100048.50
2023-04-23T07:40:23.123Z,100034.34
2023-04-23T07:42:53.694Z,100055.66
2023-04-23T07:45:20.155Z,100049.56
2023-04-23T07:47:46.848Z,100045.94
2023-04-23T07:50:14.016Z,100037.84
2023-04-23T07:52:40.419Z,100042.66
2023-04-23T07:55:07.838Z,100035.00
2023-04-23T07:57:34.175Z,100033.34
2023-04-23T08:00:00.813Z,100034.19
2023-04-23T08:02:27.685Z,100024.91
2023-04-23T08:04:54.381Z,100025.31
2023-04-23T08:07:24.021Z,100026.47
2023-04-23T08:09:50.753Z,100026.03
2023-04-23T08:12:19.384Z,100026.41
2023-04-23T08:14:47.312Z,100023.06
2023-04-23T08:17:13.719Z,100024.19
2023-04-23T08:19:40.240Z,100018.78
2023-04-23T08:22:09.911Z,100021.38
2023-04-23T08:24:36.543Z,100023.56
2023-04-23T08:27:03.012Z,100020.13
2023-04-23T08:29:29.428Z,100006.56
2023-04-23T08:31:56.106Z,99999.06
2023-04-23T08:34:22.788Z,100003.66
2023-04-23T08:36:51.985Z,100007.88
2023-04-23T08:39:18.673Z,100012.16
2023-04-23T08:41:52.393Z,100000.84
2023-04-23T08:44:23.349Z,99999.56
2023-04-23T08:46:52.829Z,99999.06
2023-04-23T08:49:20.688Z,99999.81
2023-04-23T08:51:53.235Z,99995.75
2023-04-23T08:54:27.172Z,99998.50
2023-04-23T08:57:00.821Z,99996.03
2023-04-23T08:59:31.898Z,99996.84
2023-04-23T09:02:00.898Z,99989.88
2023-04-23T09:04:28.339Z,99995.50
2023-04-23T09:06:56.262Z,100005.13
2023-04-23T09:09:23.817Z,100000.66
2023-04-23T09:11:51.732Z,99989.28
2023-04-23T09:14:19.837Z,99985.94
2023-04-23T09:16:46.449Z,99988.72
2023-04-23T09:19:13.634Z,99995.47
2023-04-23T09:21:43.018Z,99990.16
2023-04-23T09:24:13.110Z,99992.91
2023-04-23T09:26:47.016Z,99989.66
2023-04-23T09:29:17.353Z,99981.53
2023-04-23T09:31:49.612Z,99984.38
2023-04-23T09:34:18.247Z,99986.81
2023-04-23T09:37:19.200Z,99970.72
2023-04-23T09:39:57.204Z,99977.13
2023-04-23T09:42:24.304Z,99971.38
2023-04-23T09:44:58.722Z,99959.63
2023-04-23T09:47:25.975Z,99961.56
2023-04-23T09:49:53.127Z,99963.53
2023-04-23T09:52:19.685Z,99956.22
2023-04-23T09:54:46.682Z,99956.63
2023-04-23T09:57:13.821Z,99958.94
2023-04-23T10:02:13.383Z,99942.50
2023-04-23T10:04:40.448Z,99953.69
2023-04-23T10:07:18.924Z,99940.94
2023-04-23T10:09:48.155Z,99945.69
2023-04-23T10:14:46.709Z,99947.09
2023-04-23T10:17:13.765Z,99945.44
2023-04-23T10:19:44.291Z,99946.66
2023-04-23T10:24:48.606Z,99945.06
2023-04-23T10:27:30.711Z,99956.81
2023-04-23T10:30:06.434Z,99958.16
2023-04-23T10:32:37.361Z,99955.84
2023-04-23T10:35:04.712Z,99938.50
2023-04-23T10:37:31.568Z,99941.41
2023-04-23T10:40:04.601Z,99949.16
2023-04-23T10:42:31.768Z,99942.72
2023-04-23T10:45:04.785Z,99942.00
2023-04-23T10:47:37.669Z,99939.94
2023-04-23T10:50:24.125Z,99938.81
2023-04-23T10:52:53.355Z,99933.94
2023-04-23T10:55:28.652Z,99925.16
2023-04-23T10:58:06.307Z,99914.25
2023-04-23T11:00:46.447Z,99916.69
2023-04-23T11:03:44.477Z,99908.19
2023-04-23T11:06:19.383Z,99898.38
2023-04-23T11:08:53.703Z,99896.34
2023-04-23T11:11:38.390Z,99896.28
2023-04-23T11:14:14.156Z,99901.84
2023-04-23T11:16:41.218Z,99895.22
2023-04-23T11:19:17.303Z,99895.56
2023-04-23T11:21:59.941Z,99906.03
2023-04-23T11:24:41.514Z,99885.31
2023-04-23T11:27:13.916Z,99887.63
2023-04-23T11:29:42.345Z,99887.91
2023-04-23T11:32:13.290Z,99882.13
2023-04-23T11:34:41.796Z,99879.94
2023-04-23T11:37:10.873Z,99879.47
2023-04-23T11:39:37.546Z,99879.03
2023-04-23T11:42:06.339Z,99876.56
2023-04-23T11:44:32.705Z,99876.53
2023-04-23T11:47:02.091Z,99872.78
2023-04-23T11:49:28.490Z,99869.88
2023-04-23T11:51:55.006Z,99852.41
2023-04-23T11:54:27.654Z,99858.88
2023-04-23T11:56:55.207Z,99855.16
2023-04-23T11:59:21.944Z,99847.38
2023-04-23T12:01:51.790Z,99850.53
2023-04-23T12:04:26.210Z,99846.47
2023-04-23T12:06:54.924Z,99846.75
2023-04-23T12:09:24.612Z,99847.44
2023-04-23T12:11:51.177Z,99835.91
2023-04-23T12:14:20.987Z,99832.28
2023-04-23T12:16:52.086Z,99831.81
2023-04-23T12:19:20.998Z,99829.44
2023-04-23T12:21:54.664Z,99829.44
2023-04-23T12:24:52.563Z,99830.69
2023-04-23T12:27:22.088Z,99832.97
2023-04-23T12:29:49.390Z,99826.94
2023-04-23T12:32:16.010Z,99827.06
2023-04-23T12:34:53.340Z,99823.94
2023-04-23T12:37:24.213Z,99825.19
2023-04-23T12:39:50.811Z,99813.06
2023-04-23T12:42:17.296Z,99816.34
2023-04-23T12:44:45.087Z,99810.31
2023-04-23T12:47:11.797Z,99810.31
2023-04-23T12:49:40.685Z,99817.69
2023-04-23T12:52:07.926Z,99800.31
2023-04-23T12:54:40.752Z,99805.66
2023-04-23T12:57:09.913Z,99802.91
2023-04-23T12:59:36.404Z,99803.81
2023-04-23T13:02:04.659Z,99793.34
2023-04-23T13:04:33.170Z,99789.38
2023-04-23T13:06:59.865Z,99779.28
2023-04-23T13:09:28.375Z,99775.66
2023-04-23T13:11:55.165Z,99769.97
2023-04-23T13:14:21.698Z,99763.06
2023-04-23T13:16:48.970Z,99761.47
2023-04-23T13:19:17.507Z,99755.47
2023-04-23T13:21:44.155Z,99754.22
2023-04-23T13:24:10.753Z,99747.22
2023-04-23T13:26:37.372Z,99737.94
2023-04-23T13:29:03.857Z,99742.00
2023-04-23T13:31:32.422Z,99736.22
2023-04-23T13:33:58.858Z,99730.00
2023-04-23T13:36:25.547Z,99729.38
2023-04-23T13:38:52.871Z,99725.66
2023-04-23T13:41:19.714Z,99718.63
2023-04-23T13:43:46.304Z,99720.13
2023-04-23T13:46:14.434Z,99713.91
2023-04-23T13:48:41.676Z,99711.75
2023-04-23T13:51:17.974Z,99709.25
2023-04-23T13:53:54.682Z,99693.41
2023-04-23T13:56:21.058Z,99698.25
2023-04-23T13:58:49.020Z,99683.66
2023-04-23T14:01:16.175Z,99674.69
2023-04-23T14:03:42.783Z,99674.56
2023-04-23T14:06:11.513Z,99683.41
2023-04-23T14:08:38.301Z,99666.75
2023-04-23T14:11:04.929Z,99665.97
2023-04-23T14:13:32.964Z,99671.63
2023-04-23T14:16:02.041Z,99672.44
2023-04-23T14:18:30.087Z,99671.63
2023-04-23T14:20:58.096Z,99663.56
2023-04-23T14:23:25.305Z,99665.97
2023-04-23T14:26:04.307Z,99664.03
2023-04-23T14:28:39.337Z,99657.09
2023-04-23T14:31:06.280Z,99659.03
2023-04-23T14:33:32.971Z,99652.13
2023-04-23T14:36:00.217Z,99656.91
2023-04-23T14:38:26.759Z,99643.50
2023-04-23T14:40:55.712Z,99630.56
2023-04-23T14:43:22.301Z,99633.75
2023-04-23T14:45:48.817Z,99624.78
2023-04-23T14:48:15.429Z,99613.78
2023-04-23T14:50:42.153Z,99607.69
2023-04-23T14:53:10.570Z,99603.16
2023-04-23T14:55:37.037Z,99614.38
2023-04-23T14:58:03.433Z,99603.69
2023-04-23T15:00:30.371Z,99589.53
2023-04-23T15:02:57.211Z,99600.53
2023-04-23T15:05:24.049Z,99598.13
2023-04-23T15:07:51.831Z,99589.31
2023-04-23T15:10:19.381Z,99589.31
2023-04-23T15:12:53.480Z,99586.56
2023-04-23T15:15:37.054Z,99588.25
2023-04-23T15:18:07.793Z,99579.75
2023-04-23T15:20:34.297Z,99577.81
2023-04-23T15:23:00.962Z,99578.72
2023-04-23T15:25:27.821Z,99577.59
2023-04-23T15:28:00.069Z,99575.22
2023-04-23T15:30:27.589Z,99570.91
2023-04-23T15:32:57.573Z,99571.34
2023-04-23T15:35:25.346Z,99568.66
2023-04-23T15:37:54.466Z,99571.13
2023-04-23T15:40:21.253Z,99570.00
2023-04-23T15:42:50.106Z,99582.25
2023-04-23T15:45:17.218Z,99568.53
2023-04-23T15:47:46.257Z,99560.13
2023-04-23T15:50:13.142Z,99576.00
2023-04-23T15:52:41.393Z,99575.34
2023-04-23T15:55:08.220Z,99572.59
2023-04-23T15:57:34.835Z,99562.94
2023-04-23T16:00:02.390Z,99564.31
2023-04-23T16:02:28.976Z,99564.44
2023-04-23T16:04:55.865Z,99566.56
2023-04-23T16:07:22.418Z,99563.06
2023-04-23T16:09:49.408Z,99568.03
2023-04-23T16:12:15.776Z,99576.19
2023-04-23T16:14:43.007Z,99583.50
2023-04-23T16:17:09.814Z,99568.66
2023-04-23T16:19:36.352Z,99574.44
2023-04-23T16:22:02.769Z,99574.97
2023-04-23T16:24:29.733Z,99568.63
2023-04-23T16:26:56.148Z,99580.94
2023-04-23T16:29:23.180Z,99570.53
2023-04-23T16:31:50.416Z,99568.25
2023-04-23T16:34:17.194Z,99561.53
2023-04-23T16:36:44.895Z,99554.84
2023-04-23T16:39:12.399Z,99542.13
2023-04-23T16:41:39.759Z,99537.78
2023-04-23T16:44:06.243Z,99537.91
2023-04-23T16:46:33.024Z,99539.59
2023-04-23T16:48:59.860Z,99534.84
2023-04-23T16:51:27.056Z,99536.50
2023-04-23T16:53:54.082Z,99536.50
2023-04-23T16:56:20.952Z,99534.56
2023-04-23T16:58:47.652Z,99532.97
2023-04-23T17:01:14.842Z,99530.22
2023-04-23T17:03:41.504Z,99529.09
2023-04-23T17:06:10.013Z,99536.06
2023-04-23T17:08:37.243Z,99527.59
2023-04-23T17:11:11.578Z,99524.84
2023-04-23T17:13:38.978Z,99518.41
2023-04-23T17:16:05.518Z,99512.50
2023-04-23T17:18:32.338Z,99512.25
2023-04-23T17:20:58.744Z,99510.75
2023-04-23T17:23:25.174Z,99504.72
2023-04-23T17:25:51.936Z,99502.00
2023-04-23T17:28:20.305Z,99504.94
2023-04-23T17:30:50.826Z,99501.31
2023-04-23T17:33:17.875Z,99497.78
2023-04-23T17:35:44.326Z,99494.59
2023-04-23T17:38:11.798Z,99489.81
2023-04-23T17:40:39.423Z,99496.34
2023-04-23T17:43:06.241Z,99497.25
2023-04-23T17:45:32.721Z,99500.63
2023-04-23T17:47:59.182Z,99509.63
2023-04-23T17:50:25.746Z,99521.09
2023-04-23T17:52:52.418Z,99522.06
2023-04-23T17:55:21.737Z,99529.91
2023-04-23T17:57:49.145Z,99542.59
2023-04-23T18:00:17.407Z,99541.59
2023-04-23T18:02:44.758Z,99555.63
2023-04-23T18:05:14.721Z,99564.03
2023-04-23T18:07:42.666Z,99556.31
2023-04-23T18:10:13.996Z,99538.56
2023-04-23T18:12:41.697Z,99537.31
2023-04-23T18:15:11.274Z,99522.75
2023-04-23T18:17:39.428Z,99525.50
2023-04-23T18:20:06.658Z,99508.78
2023-04-23T18:22:33.493Z,99506.16
2023-04-23T18:24:59.846Z,99506.34
2023-04-23T18:27:34.644Z,99506.91
2023-04-23T18:30:02.444Z,99500.16
2023-04-23T18:32:35.162Z,99494.63
2023-04-23T18:35:02.812Z,99495.91
2023-04-23T18:37:44.006Z,99487.66
2023-04-23T18:40:11.394Z,99491.69
2023-04-23T18:42:39.246Z,99489.34
2023-04-23T18:45:06.454Z,99493.03
2023-04-23T18:47:38.739Z,99478.63
2023-04-23T18:50:36.364Z,99480.69
2023-04-23T18:53:03.165Z,99486.31
2023-04-23T18:55:29.498Z,99485.13
2023-04-23T18:57:56.170Z,99488.38
2023-04-23T19:00:23.016Z,99483.56
2023-04-23T19:02:52.532Z,99483.66
2023-04-23T19:05:19.871Z,99483.25
2023-04-23T19:07:48.224Z,99474.44
2023-04-23T19:10:16.146Z,99463.59
2023-04-23T19:12:43.597Z,99474.06
2023-04-23T19:15:11.017Z,99467.63
2023-04-23T19:17:38.698Z,99462.44
2023-04-23T19:20:09.265Z,99462.88
2023-04-23T19:22:35.911Z,99462.44
2023-04-23T19:25:02.854Z,99456.81
2023-04-23T19:27:29.213Z,99450.41
2023-04-23T19:29:57.696Z,99451.97
2023-04-23T19:32:24.378Z,99441.50
2023-04-23T19:34:52.140Z,99435.84
2023-04-23T19:37:18.582Z,99441.06
2023-04-23T19:39:45.461Z,99439.94
2023-04-23T19:42:12.143Z,99431.13
2023-04-23T19:44:38.718Z,99433.56
2023-04-23T19:47:07.400Z,99431.16
2023-04-23T19:49:33.955Z,99427.97
2023-04-23T19:52:03.851Z,99419.16
2023-04-23T19:54:30.572Z,99411.56
2023-04-23T19:56:58.584Z,99415.25
2023-04-23T19:59:25.182Z,99410.03
2023-04-23T20:01:53.857Z,99408.88
2023-04-23T20:04:21.130Z,99410.88
2023-04-23T20:06:48.689Z,99420.47
2023-04-23T20:09:18.800Z,99414.09
2023-04-23T20:14:13.224Z,99409.38
2023-04-23T20:16:42.758Z,99417.47
2023-04-23T20:19:15.313Z,99425.13
2023-04-23T20:21:42.936Z,99420.31
2023-04-23T20:24:10.571Z,99419.09
2023-04-23T20:26:41.403Z,99421.91
2023-04-23T20:29:08.133Z,99418.75
2023-04-23T20:31:37.318Z,99427.19
2023-04-23T20:34:03.800Z,99423.97
2023-04-23T20:36:33.125Z,99422.38
2023-04-23T20:39:06.055Z,99421.22
2023-04-23T20:41:36.438Z,99426.03
2023-04-23T20:44:07.327Z,99424.88
2023-04-23T20:46:33.812Z,99416.03
2023-04-23T20:49:05.096Z,99421.66
2023-04-23T20:51:35.240Z,99420.47
2023-04-23T20:54:08.325Z,99406.41
2023-04-23T20:56:35.944Z,99411.59
2023-04-23T20:59:08.132Z,99414.00
2023-04-23T21:01:37.964Z,99408.78
2023-04-23T21:04:07.322Z,99420.41
2023-04-23T21:06:34.297Z,99422.81
2023-04-23T21:09:00.765Z,99418.00
2023-04-23T21:11:28.825Z,99405.50
2023-04-23T21:13:58.086Z,99407.09
2023-04-23T21:16:27.324Z,99406.69
2023-04-23T21:18:54.007Z,99405.03
2023-04-23T21:21:27.314Z,99408.63
2023-04-23T21:23:53.660Z,99394.56
2023-04-23T21:26:21.076Z,99396.59
2023-04-23T21:28:51.506Z,99390.97
2023-04-23T21:31:30.128Z,99385.38
2023-04-23T21:33:56.969Z,99394.22
2023-04-23T21:36:23.945Z,99385.78
2023-04-23T21:38:55.882Z,99391.00
2023-04-23T21:41:22.297Z,99387.03
2023-04-23T21:43:49.088Z,99381.84
2023-04-23T21:46:16.139Z,99389.09
2023-04-23T21:48:42.704Z,99386.72
2023-04-23T21:51:09.351Z,99391.97
2023-04-23T21:53:38.789Z,99382.38
2023-04-23T21:56:06.720Z,99393.22
2023-04-23T21:58:34.650Z,99391.63
2023-04-23T22:01:01.469Z,99390.06
2023-04-23T22:03:36.497Z,99390.50
2023-04-23T22:06:06.821Z,99404.53
2023-04-23T22:08:34.665Z,99396.13
2023-04-23T22:11:01.107Z,99404.94
2023-04-23T22:13:28.953Z,99404.16
2023-04-23T22:15:58.573Z,99392.94
2023-04-23T22:18:28.728Z,99404.63
2023-04-23T22:20:57.250Z,99404.63
2023-04-23T22:23:24.846Z,99410.28
2023-04-23T22:25:54.114Z,99413.53
2023-04-23T22:28:20.530Z,99427.19
2023-04-23T22:30:48.813Z,99418.38
2023-04-23T22:33:16.442Z,99432.47
2023-04-23T22:35:44.956Z,99430.50
2023-04-23T22:38:11.334Z,99434.53
2023-04-23T22:40:40.785Z,99427.31
2023-04-23T22:46:02.696Z,99436.66
2023-04-23T22:48:32.696Z,99443.53
2023-04-23T22:50:59.231Z,99443.16
2023-04-23T22:53:25.842Z,99427.13
2023-04-23T22:55:52.707Z,99425.97
2023-04-23T22:58:20.714Z,99424.78
2023-04-23T23:00:47.734Z,99434.84
2023-04-23T23:03:16.121Z,99429.63
2023-04-23T23:05:42.866Z,99429.63
2023-04-23T23:08:09.506Z,99425.66
2023-04-23T23:10:35.965Z,99435.69
2023-04-23T23:13:04.855Z,99433.31
2023-04-23T23:15:33.337Z,99430.88
2023-04-23T23:18:00.120Z,99437.34
2023-04-23T23:20:28.398Z,99424.03
2023-04-23T23:22:57.106Z,99427.25
2023-04-23T23:25:24.718Z,99433.31
2023-04-23T23:27:51.542Z,99425.28
2023-04-23T23:30:17.953Z,99427.69
2023-04-23T23:32:47.341Z,99432.91
2023-04-23T23:35:18.606Z,99417.28
2023-04-23T23:37:47.948Z,99404.44
2023-04-23T23:40:14.397Z,99418.09
2023-04-23T23:42:43.304Z,99411.75
2023-04-23T23:45:12.714Z,99416.16
2023-04-23T23:47:43.899Z,99413.78
2023-04-23T23:50:11.306Z,99421.41
2023-04-23T23:52:37.760Z,99414.56
2023-04-23T23:55:04.766Z,99417.81
2023-04-23T23:57:31.438Z,99417.00
2023-04-23T23:59:58.041Z,99421.44
